East Vestal, New York
Current Conditions -  °F | °C
As of 12:53 PM on Monday 22 Dec 2014 (Local Time) from KBGM Reporting Station
Overcast Overcast  
Wind Chill: 23°   Ceiling: 1400
Heat Index: 33°   Visibility: 10mi
Dew Point: 27°   Wind: 15mph
Humidity: 78%   Direction: 170°S
Pressure: 30.16"   Gusts: NA
Location:  42.0523°N, 75.9029°W
Report Text: KBGM 221753Z 17013KT 10SM OVC014 01/M03 A3016 RMK AO2 SLP231 T00061028 10006 21028 58026
Loading
Personal Weather Stations






























Interactive Weather Map New forecast layout! Learn more

10-Day Weather Forecast

Advertisements
Track Severe Weather on mobile